Terminal Aerodrome Forecast
Issued by NWS Upton, NY

Current Version | Previous Version | Text Only | Print | Product List | Glossary On
Versions: 1 2 3 4 5 6 7 8 9 10 11 12 13 14 15 16 17 18 19 20 21 22 23 24 25 26 27 28 29 30 31 32 33 34 35 36 37 38 39 40 41 42 43 44 45 46 47 48
000
FTUS41 KOKX 210949 AAK
TAFBDR
TAF AMD
KBDR 210949Z 2110/2206 16004KT 4SM BR OVC005
      TEMPO 2110/2113 OVC004
     FM211500 17006KT 4SM BR OVC006
     FM211700 18007KT P6SM BKN015
     FM211900 18006KT P6SM BKN025
     FM212100 18007KT P6SM BKN040
     FM220300 20004KT 6SM BR OVC015=

USA.gov is the U.S. government's official web portal to all federal, state and local government web resources and services.